createdAt,value
2019-01-19T00:00:54.595Z,19.00
2019-01-19T00:03:21.746Z,18.05
2019-01-19T00:05:48.875Z,17.60
2019-01-19T00:08:16.070Z,15.08
2019-01-19T00:10:42.850Z,17.52
2019-01-19T00:13:09.998Z,16.90
2019-01-19T00:15:36.728Z,17.42
2019-01-19T00:18:03.886Z,17.82
2019-01-19T00:20:31.032Z,16.67
2019-01-19T00:22:58.130Z,17.12
2019-01-19T00:25:24.925Z,18.98
2019-01-19T00:27:51.586Z,20.12
2019-01-19T00:30:19.418Z,22.40
2019-01-19T00:32:46.621Z,20.50
2019-01-19T00:35:17.732Z,19.98
2019-01-19T00:37:42.460Z,19.87
2019-01-19T00:40:09.620Z,20.90
2019-01-19T00:42:36.763Z,21.57
2019-01-19T00:45:03.916Z,19.35
2019-01-19T00:47:30.708Z,18.23
2019-01-19T00:49:58.312Z,17.98
2019-01-19T00:52:25.468Z,17.37
2019-01-19T00:54:52.622Z,17.62
2019-01-19T00:57:19.766Z,18.12
2019-01-19T00:59:46.466Z,17.02
2019-01-19T01:02:13.666Z,19.10
2019-01-19T01:04:40.842Z,18.00
2019-01-19T01:07:07.750Z,17.50
2019-01-19T01:09:34.510Z,17.95
2019-01-19T01:12:01.172Z,17.77
2019-01-19T01:14:28.263Z,18.52
2019-01-19T01:16:55.443Z,18.90
2019-01-19T01:19:22.578Z,18.20
2019-01-19T01:21:49.782Z,17.20
2019-01-19T01:24:16.474Z,18.27
2019-01-19T01:26:43.648Z,17.23
2019-01-19T01:29:10.431Z,18.40
2019-01-19T01:31:37.086Z,19.80
2019-01-19T01:34:03.831Z,18.95
2019-01-19T01:36:30.525Z,19.50
2019-01-19T01:38:57.627Z,18.40
2019-01-19T01:41:24.793Z,19.87
2019-01-19T01:43:51.824Z,20.02
2019-01-19T01:46:18.966Z,19.75
2019-01-19T01:48:45.639Z,19.05
2019-01-19T01:51:12.658Z,19.40
2019-01-19T01:53:39.823Z,19.77
2019-01-19T01:56:07.510Z,20.20
2019-01-19T01:58:34.239Z,18.20
2019-01-19T02:01:01.384Z,18.45
2019-01-19T02:03:28.050Z,19.45
2019-01-19T02:05:54.721Z,18.50
2019-01-19T02:08:21.901Z,18.80
2019-01-19T02:10:48.700Z,19.20
2019-01-19T02:13:15.346Z,17.75
2019-01-19T02:15:42.440Z,18.32
2019-01-19T02:18:10.498Z,17.85
2019-01-19T02:20:37.670Z,16.45
2019-01-19T02:23:04.380Z,17.55
2019-01-19T02:25:31.536Z,17.73
2019-01-19T02:30:29.275Z,17.90
2019-01-19T02:32:57.089Z,17.98
2019-01-19T02:35:24.230Z,17.50
2019-01-19T02:37:51.228Z,17.05
2019-01-19T02:40:18.385Z,16.77
2019-01-19T02:42:46.087Z,17.32
2019-01-19T02:45:13.196Z,16.55
2019-01-19T02:47:40.583Z,16.42
2019-01-19T02:50:08.370Z,16.50
2019-01-19T02:52:36.110Z,16.87
2019-01-19T02:55:03.016Z,15.25
2019-01-19T02:57:30.199Z,17.20
2019-01-19T02:59:57.382Z,15.93
2019-01-19T03:02:24.041Z,15.93
2019-01-19T03:04:51.201Z,15.13
2019-01-19T03:07:18.304Z,15.03
2019-01-19T03:09:44.979Z,14.43
2019-01-19T03:12:12.977Z,14.15
2019-01-19T03:14:40.177Z,14.20
2019-01-19T03:17:07.264Z,14.93
2019-01-19T03:19:35.074Z,14.18
2019-01-19T03:22:02.860Z,15.18
2019-01-19T03:24:30.086Z,14.40
2019-01-19T03:26:57.858Z,13.70
2019-01-19T03:29:25.631Z,13.60
2019-01-19T03:31:52.779Z,13.90
2019-01-19T03:34:20.641Z,13.10
2019-01-19T03:36:47.729Z,13.48
2019-01-19T03:39:14.918Z,14.68
2019-01-19T03:41:42.737Z,14.47
2019-01-19T03:44:10.311Z,14.98
2019-01-19T03:46:37.497Z,13.28
2019-01-19T03:49:04.717Z,13.13
2019-01-19T03:51:32.435Z,12.93
2019-01-19T03:54:00.224Z,13.65
2019-01-19T03:56:27.314Z,13.40
2019-01-19T03:58:54.082Z,13.40
2019-01-19T04:01:21.261Z,13.70
2019-01-19T04:03:48.412Z,13.55
2019-01-19T04:06:16.214Z,12.90
2019-01-19T04:08:42.899Z,13.78
2019-01-19T04:11:09.679Z,21.93
2019-01-19T04:13:36.383Z,19.27
2019-01-19T04:16:04.156Z,17.02
2019-01-19T04:18:31.545Z,14.93
2019-01-19T04:20:58.643Z,17.98
2019-01-19T04:23:26.410Z,22.75
2019-01-19T04:25:54.087Z,17.45
2019-01-19T04:28:21.123Z,18.37
2019-01-19T04:30:49.535Z,13.80
2019-01-19T04:33:16.596Z,14.58
2019-01-19T04:35:44.430Z,15.13
2019-01-19T04:38:11.635Z,14.45
2019-01-19T04:40:39.452Z,14.58
2019-01-19T04:43:07.061Z,15.00
2019-01-19T04:45:34.276Z,14.30
2019-01-19T04:48:02.145Z,15.23
2019-01-19T04:50:29.282Z,15.15
2019-01-19T04:52:56.532Z,17.95
2019-01-19T04:55:24.171Z,15.90
2019-01-19T04:57:52.078Z,14.95
2019-01-19T05:00:19.809Z,14.85
2019-01-19T05:02:47.607Z,13.58
2019-01-19T05:05:15.480Z,14.80
2019-01-19T05:07:42.560Z,14.83
2019-01-19T05:10:10.251Z,12.47
2019-01-19T05:12:37.399Z,12.63
2019-01-19T05:15:05.193Z,11.30
2019-01-19T05:17:32.943Z,12.70
2019-01-19T05:20:00.097Z,13.55
2019-01-19T05:22:27.951Z,12.40
2019-01-19T05:24:56.853Z,12.75
2019-01-19T05:27:23.935Z,13.10
2019-01-19T05:29:51.007Z,13.00
2019-01-19T05:32:18.818Z,11.97
2019-01-19T05:34:45.614Z,11.33
2019-01-19T05:37:13.425Z,12.53
2019-01-19T05:39:40.535Z,11.57
2019-01-19T05:42:08.322Z,12.35
2019-01-19T05:44:36.144Z,12.30
2019-01-19T05:47:03.874Z,12.68
2019-01-19T05:49:32.090Z,11.95
2019-01-19T05:51:59.151Z,16.07
2019-01-19T05:54:26.175Z,21.07
2019-01-19T05:56:53.838Z,21.70
2019-01-19T05:59:20.910Z,15.58
2019-01-19T06:01:48.141Z,14.95
2019-01-19T06:04:15.967Z,13.58
2019-01-19T06:06:46.915Z,13.45
2019-01-19T06:09:13.604Z,13.93
2019-01-19T06:11:40.774Z,15.88
2019-01-19T06:14:07.430Z,13.88
2019-01-19T06:16:34.726Z,15.35
2019-01-19T06:19:01.818Z,14.50
2019-01-19T06:21:28.870Z,12.20
2019-01-19T06:23:56.410Z,13.83
2019-01-19T06:26:24.216Z,11.90
2019-01-19T06:28:51.408Z,11.40
2019-01-19T06:31:19.084Z,11.08
2019-01-19T06:33:46.723Z,11.60
2019-01-19T06:36:13.818Z,11.40
2019-01-19T06:38:41.032Z,11.83
2019-01-19T06:41:08.101Z,11.15
2019-01-19T06:43:34.821Z,11.22
2019-01-19T06:46:02.192Z,11.03
2019-01-19T06:48:28.869Z,10.63
2019-01-19T06:50:55.973Z,11.90
2019-01-19T06:53:23.086Z,12.63
2019-01-19T06:55:49.777Z,12.07
2019-01-19T06:58:16.794Z,12.78
2019-01-19T07:00:43.535Z,13.43
2019-01-19T07:03:10.611Z,13.10
2019-01-19T07:05:37.633Z,18.07
2019-01-19T07:08:04.782Z,18.77
2019-01-19T07:10:31.823Z,20.35
2019-01-19T07:12:58.895Z,23.25
2019-01-19T07:15:26.038Z,23.40
2019-01-19T07:17:52.731Z,20.12
2019-01-19T07:20:19.826Z,23.45
2019-01-19T07:22:46.882Z,22.10
2019-01-19T07:25:13.602Z,18.95
2019-01-19T07:27:41.077Z,18.07
2019-01-19T07:30:07.804Z,18.17
2019-01-19T07:32:34.849Z,19.23
2019-01-19T07:35:01.599Z,18.70
2019-01-19T07:37:28.667Z,19.23
2019-01-19T07:39:55.711Z,18.05
2019-01-19T07:42:22.835Z,18.52
2019-01-19T07:44:49.498Z,15.80
2019-01-19T07:47:16.650Z,16.70
2019-01-19T07:49:43.692Z,15.60
2019-01-19T07:52:10.837Z,17.87
2019-01-19T07:54:37.993Z,18.07
2019-01-19T07:57:04.655Z,17.90
2019-01-19T07:59:31.382Z,16.27
2019-01-19T08:01:58.107Z,16.87
2019-01-19T08:04:24.873Z,17.07
2019-01-19T08:06:52.240Z,15.32
2019-01-19T08:09:19.353Z,15.28
2019-01-19T08:11:46.505Z,16.30
2019-01-19T08:14:13.538Z,16.55
2019-01-19T08:16:40.710Z,16.25
2019-01-19T08:19:07.753Z,17.57
2019-01-19T08:21:34.929Z,17.20
2019-01-19T08:24:02.178Z,16.30
2019-01-19T08:26:29.304Z,16.75
2019-01-19T08:28:56.043Z,15.38
2019-01-19T08:31:23.204Z,16.52
2019-01-19T08:33:50.445Z,20.55
2019-01-19T08:36:17.088Z,20.23
2019-01-19T08:38:44.240Z,22.02
2019-01-19T08:41:11.289Z,21.77
2019-01-19T08:43:38.366Z,21.15
2019-01-19T08:46:05.484Z,19.07
2019-01-19T08:48:32.534Z,16.65
2019-01-19T08:50:59.260Z,16.30
2019-01-19T08:53:26.428Z,17.77
2019-01-19T08:55:53.505Z,17.77
2019-01-19T08:58:20.219Z,16.65
2019-01-19T09:00:46.933Z,17.75
2019-01-19T09:03:14.061Z,18.10
2019-01-19T09:05:40.809Z,17.27
2019-01-19T09:08:07.465Z,17.87
2019-01-19T09:10:34.518Z,19.52
2019-01-19T09:13:01.316Z,19.12
2019-01-19T09:15:27.999Z,18.30
2019-01-19T09:17:54.677Z,19.12
2019-01-19T09:20:21.811Z,20.80
2019-01-19T09:22:48.952Z,20.35
2019-01-19T09:25:15.690Z,21.33
2019-01-19T09:27:42.366Z,19.70
2019-01-19T09:30:09.795Z,19.90
2019-01-19T09:32:36.966Z,19.67
2019-01-19T09:35:03.675Z,20.23
2019-01-19T09:37:30.428Z,21.25
2019-01-19T09:39:57.103Z,20.75
2019-01-19T09:42:24.214Z,23.70
2019-01-19T09:44:50.941Z,24.40
2019-01-19T09:47:18.760Z,23.73
2019-01-19T09:49:45.842Z,23.50
2019-01-19T09:52:20.912Z,21.80
2019-01-19T09:54:42.548Z,23.65
2019-01-19T09:57:09.290Z,23.07
2019-01-19T09:59:36.007Z,21.60
2019-01-19T10:02:03.054Z,21.75
2019-01-19T10:04:30.132Z,23.15
2019-01-19T10:06:57.243Z,21.35
2019-01-19T10:09:24.283Z,23.27
2019-01-19T10:11:51.321Z,24.43
2019-01-19T10:14:18.111Z,26.15
2019-01-19T10:16:45.240Z,25.10
2019-01-19T10:19:12.439Z,24.70
2019-01-19T10:21:39.243Z,23.52
2019-01-19T10:24:05.988Z,21.85
2019-01-19T10:26:33.072Z,22.22
2019-01-19T10:29:00.165Z,21.60
2019-01-19T10:31:27.211Z,22.77
2019-01-19T10:33:54.345Z,24.55
2019-01-19T10:36:22.193Z,21.48
2019-01-19T10:38:49.948Z,21.87
2019-01-19T10:43:56.619Z,23.07
2019-01-19T10:46:23.736Z,25.30
2019-01-19T10:48:50.425Z,25.08
2019-01-19T10:51:17.498Z,26.40
2019-01-19T10:53:44.239Z,25.45
2019-01-19T10:56:10.884Z,28.42
2019-01-19T10:58:38.031Z,29.00
2019-01-19T11:01:05.104Z,30.37
2019-01-19T11:03:32.796Z,22.40
2019-01-19T11:05:59.607Z,22.07
2019-01-19T11:08:26.661Z,16.95
2019-01-19T11:10:53.752Z,21.77
2019-01-19T11:13:21.624Z,23.20
2019-01-19T11:15:48.272Z,22.77
2019-01-19T11:18:15.246Z,23.30
2019-01-19T11:20:42.406Z,22.22
2019-01-19T11:23:09.581Z,19.90
2019-01-19T11:25:36.329Z,21.57
2019-01-19T11:28:03.438Z,18.25
2019-01-19T11:30:30.490Z,18.35
2019-01-19T11:32:57.279Z,13.88
2019-01-19T11:35:23.955Z,12.98
2019-01-19T11:37:51.792Z,12.18
2019-01-19T11:40:19.660Z,7.40
2019-01-19T11:42:46.839Z,6.72
2019-01-19T11:45:13.991Z,8.83
2019-01-19T11:47:41.082Z,9.58
2019-01-19T11:50:08.216Z,12.47
2019-01-19T11:52:35.488Z,15.25
2019-01-19T11:55:02.590Z,16.37
2019-01-19T11:57:29.741Z,16.42
2019-01-19T11:59:58.763Z,16.23
2019-01-19T12:02:26.552Z,16.60
2019-01-19T12:04:53.574Z,17.45
2019-01-19T12:07:20.602Z,4.65
2019-01-19T12:09:47.507Z,13.18
2019-01-19T12:12:14.813Z,14.13
2019-01-19T12:14:42.149Z,11.40
2019-01-19T12:17:09.916Z,12.65
2019-01-19T12:19:36.905Z,12.03
2019-01-19T12:22:04.093Z,9.20
2019-01-19T12:24:31.181Z,5.92
2019-01-19T12:26:58.362Z,7.62
2019-01-19T12:29:25.457Z,8.48
2019-01-19T12:31:52.522Z,9.60
2019-01-19T12:34:19.252Z,8.58
2019-01-19T12:36:46.030Z,9.08
2019-01-19T12:39:12.678Z,5.55
2019-01-19T12:41:39.396Z,8.05
2019-01-19T12:44:06.564Z,8.83
2019-01-19T12:46:33.211Z,8.43
2019-01-19T12:48:59.927Z,7.50
2019-01-19T12:51:26.869Z,8.63
2019-01-19T12:53:53.916Z,6.90
2019-01-19T12:56:20.637Z,8.90
2019-01-19T12:58:47.363Z,9.80
2019-01-19T13:01:14.038Z,9.10
2019-01-19T13:03:40.762Z,8.20
2019-01-19T13:06:07.864Z,7.25
2019-01-19T13:08:34.767Z,6.05
2019-01-19T13:11:01.670Z,3.77
2019-01-19T13:13:28.384Z,3.75
2019-01-19T13:15:55.498Z,4.80
2019-01-19T13:18:23.438Z,4.65
2019-01-19T13:20:50.629Z,6.05
2019-01-19T13:23:17.803Z,5.50
2019-01-19T13:25:44.899Z,5.80
2019-01-19T13:28:12.101Z,8.05
2019-01-19T13:30:38.777Z,8.93
2019-01-19T13:33:05.883Z,8.13
2019-01-19T13:35:32.600Z,5.75
2019-01-19T13:37:59.781Z,5.65
2019-01-19T13:40:26.907Z,5.97
2019-01-19T13:42:54.711Z,5.30
2019-01-19T13:45:21.827Z,6.03
2019-01-19T13:47:48.983Z,7.12
2019-01-19T13:50:16.097Z,5.70
2019-01-19T13:52:42.805Z,4.72
2019-01-19T13:55:10.055Z,4.35
2019-01-19T13:57:36.820Z,4.53
2019-01-19T14:00:03.427Z,4.42
2019-01-19T14:02:30.056Z,4.37
2019-01-19T14:04:57.242Z,3.98
2019-01-19T14:07:23.870Z,4.65
2019-01-19T14:09:51.004Z,4.30
2019-01-19T14:12:18.117Z,4.40
2019-01-19T14:14:45.389Z,11.88
2019-01-19T14:17:12.543Z,6.05
2019-01-19T14:19:39.658Z,5.40
2019-01-19T14:22:06.368Z,5.50
2019-01-19T14:24:33.059Z,5.85
2019-01-19T14:27:00.842Z,5.55
2019-01-19T14:29:28.002Z,5.17
2019-01-19T14:31:54.637Z,5.50
2019-01-19T14:34:21.734Z,5.70
2019-01-19T14:36:48.455Z,5.47
2019-01-19T14:39:15.516Z,5.40
2019-01-19T14:41:42.239Z,5.20
2019-01-19T14:44:09.428Z,5.22
2019-01-19T14:46:36.078Z,5.42
2019-01-19T14:49:03.176Z,5.72
2019-01-19T14:51:29.967Z,6.30
2019-01-19T14:53:57.110Z,7.05
2019-01-19T14:56:24.794Z,8.03
2019-01-19T14:58:51.569Z,7.40
2019-01-19T15:01:18.670Z,7.12
2019-01-19T15:03:45.394Z,7.50
2019-01-19T15:06:12.106Z,8.90
2019-01-19T15:08:38.764Z,9.55
2019-01-19T15:11:05.457Z,11.25
2019-01-19T15:13:32.246Z,13.05
2019-01-19T15:15:58.899Z,22.65
2019-01-19T15:18:25.956Z,17.87
2019-01-19T15:20:53.439Z,11.85
2019-01-19T15:23:20.604Z,11.05
2019-01-19T15:25:47.830Z,13.22
2019-01-19T15:28:14.961Z,28.50
2019-01-19T15:30:42.302Z,31.77
2019-01-19T15:33:09.011Z,43.42
2019-01-19T15:35:36.161Z,38.58
2019-01-19T15:38:03.390Z,52.27
2019-01-19T15:40:30.038Z,50.43
2019-01-19T15:42:57.147Z,45.52
2019-01-19T15:45:24.478Z,54.83
2019-01-19T15:47:51.672Z,63.42
2019-01-19T15:50:19.455Z,58.20
2019-01-19T15:52:46.668Z,28.30
2019-01-19T15:55:13.389Z,23.52
2019-01-19T15:57:40.771Z,25.27
2019-01-19T16:02:46.818Z,30.48
2019-01-19T16:05:13.619Z,30.60
2019-01-19T16:07:40.707Z,28.05
2019-01-19T16:10:07.759Z,29.42
2019-01-19T16:12:35.010Z,29.27
2019-01-19T16:15:02.061Z,31.37
2019-01-19T16:17:29.156Z,30.00
2019-01-19T16:19:56.379Z,24.67
2019-01-19T16:22:23.070Z,25.60
2019-01-19T16:24:50.170Z,23.05
2019-01-19T16:27:17.315Z,22.40
2019-01-19T16:29:44.358Z,25.40
2019-01-19T16:32:11.137Z,22.35
2019-01-19T16:34:37.860Z,29.52
2019-01-19T16:37:04.901Z,40.88
2019-01-19T16:39:32.824Z,54.08
2019-01-19T16:41:59.503Z,64.32
2019-01-19T16:44:26.555Z,67.30
2019-01-19T16:46:53.324Z,62.48
2019-01-19T16:49:20.462Z,54.15
2019-01-19T16:51:47.597Z,57.40
2019-01-19T16:54:14.681Z,56.85
2019-01-19T16:56:41.785Z,68.50
2019-01-19T16:59:09.332Z,75.90
2019-01-19T17:01:36.192Z,72.53
2019-01-19T17:04:02.914Z,72.65
2019-01-19T17:06:30.121Z,82.55
2019-01-19T17:08:56.852Z,106.10
2019-01-19T17:11:23.981Z,113.40
2019-01-19T17:13:51.103Z,100.60
2019-01-19T17:16:17.818Z,83.50
2019-01-19T17:18:44.505Z,75.75
2019-01-19T17:21:11.591Z,92.78
2019-01-19T17:23:38.281Z,85.03
2019-01-19T17:26:04.998Z,74.47
2019-01-19T17:28:31.712Z,58.60
2019-01-19T17:30:58.407Z,53.13
2019-01-19T17:33:25.189Z,57.45
2019-01-19T17:35:52.964Z,60.00
2019-01-19T17:38:19.621Z,81.60
2019-01-19T17:40:46.374Z,73.40
2019-01-19T17:43:13.063Z,65.97
2019-01-19T17:45:39.785Z,93.82
2019-01-19T17:48:06.927Z,71.72
2019-01-19T17:50:33.620Z,65.85
2019-01-19T17:53:00.749Z,60.60
2019-01-19T17:55:27.993Z,65.37
2019-01-19T17:57:54.643Z,73.28
2019-01-19T18:00:21.703Z,70.87
2019-01-19T18:02:48.426Z,79.50
2019-01-19T18:05:15.556Z,80.47
2019-01-19T18:07:42.696Z,91.12
2019-01-19T18:10:09.353Z,82.30
2019-01-19T18:12:36.058Z,94.03
2019-01-19T18:15:03.267Z,85.50
2019-01-19T18:17:30.378Z,87.97
2019-01-19T18:19:57.179Z,88.50
2019-01-19T18:22:24.306Z,94.37
2019-01-19T18:24:51.451Z,96.22
2019-01-19T18:27:18.551Z,94.85
2019-01-19T18:29:46.259Z,90.35
2019-01-19T18:32:13.376Z,83.17
2019-01-19T18:34:40.533Z,72.55
2019-01-19T18:37:07.579Z,60.70
2019-01-19T18:39:35.659Z,54.30
2019-01-19T18:42:02.817Z,48.13
2019-01-19T18:44:30.493Z,45.73
2019-01-19T18:46:57.645Z,46.08
2019-01-19T18:49:24.793Z,41.25
2019-01-19T18:51:51.907Z,42.30
2019-01-19T18:54:18.578Z,41.70
2019-01-19T18:56:45.778Z,38.00
2019-01-19T18:59:12.858Z,37.08
2019-01-19T19:01:39.520Z,39.03
2019-01-19T19:04:07.286Z,37.35
2019-01-19T19:06:34.391Z,38.38
2019-01-19T19:09:01.460Z,37.20
2019-01-19T19:11:28.502Z,38.05
2019-01-19T19:13:55.536Z,38.23
2019-01-19T19:16:22.265Z,39.58
2019-01-19T19:18:49.478Z,42.98
2019-01-19T19:21:16.697Z,44.83
2019-01-19T19:23:45.532Z,45.03
2019-01-19T19:26:12.762Z,45.75
2019-01-19T19:28:39.491Z,47.23
2019-01-19T19:31:06.411Z,54.00
2019-01-19T19:33:33.457Z,46.92
2019-01-19T19:36:00.630Z,48.95
2019-01-19T19:38:27.667Z,45.52
2019-01-19T19:40:55.501Z,50.25
2019-01-19T19:43:22.594Z,50.17
2019-01-19T19:45:50.401Z,51.23
2019-01-19T19:48:17.090Z,49.58
2019-01-19T19:50:44.900Z,49.90
2019-01-19T19:53:13.449Z,47.15
2019-01-19T19:55:41.583Z,47.98
2019-01-19T19:58:09.154Z,52.27
2019-01-19T20:00:36.300Z,53.10
2019-01-19T20:03:05.160Z,50.63
2019-01-19T20:05:33.862Z,45.83
2019-01-19T20:08:02.448Z,43.08
2019-01-19T20:10:30.428Z,35.58
2019-01-19T20:12:59.225Z,34.45
2019-01-19T20:15:26.378Z,33.05
2019-01-19T20:17:55.469Z,31.48
2019-01-19T20:20:22.307Z,32.25
2019-01-19T20:22:49.028Z,39.03
2019-01-19T20:25:16.211Z,39.20
2019-01-19T20:27:43.712Z,40.30
2019-01-19T20:30:10.939Z,38.70
2019-01-19T20:32:37.689Z,35.45
2019-01-19T20:35:04.457Z,35.52
2019-01-19T20:37:32.031Z,36.20
2019-01-19T20:39:59.074Z,41.15
2019-01-19T20:42:26.147Z,39.88
2019-01-19T20:44:52.975Z,41.10
2019-01-19T20:47:19.704Z,39.35
2019-01-19T20:49:47.592Z,38.80
2019-01-19T20:52:14.658Z,45.12
2019-01-19T20:54:42.512Z,49.27
2019-01-19T20:57:10.333Z,54.98
2019-01-19T20:59:38.814Z,49.08
2019-01-19T21:02:05.554Z,44.25
2019-01-19T21:04:33.346Z,48.38
2019-01-19T21:07:00.565Z,45.35
2019-01-19T21:09:28.147Z,48.38
2019-01-19T21:11:55.935Z,51.05
2019-01-19T21:14:23.633Z,47.60
2019-01-19T21:16:51.550Z,50.38
2019-01-19T21:19:18.978Z,50.40
2019-01-19T21:21:47.279Z,45.83
2019-01-19T21:24:14.758Z,48.20
2019-01-19T21:26:42.051Z,48.70
2019-01-19T21:29:10.274Z,47.75
2019-01-19T21:31:37.665Z,47.43
2019-01-19T21:34:06.739Z,45.40
2019-01-19T21:36:34.240Z,48.05
2019-01-19T21:39:02.647Z,50.65
2019-01-19T21:41:29.620Z,48.52
2019-01-19T21:43:56.682Z,50.10
2019-01-19T21:46:23.591Z,46.92
2019-01-19T21:48:51.403Z,48.85
2019-01-19T21:51:20.267Z,52.55
2019-01-19T21:53:47.692Z,49.70
2019-01-19T21:56:15.393Z,50.25
2019-01-19T21:58:42.507Z,61.28
2019-01-19T22:01:10.556Z,68.90
2019-01-19T22:03:37.752Z,73.85
2019-01-19T22:06:04.588Z,74.32
2019-01-19T22:08:32.537Z,78.72
2019-01-19T22:10:59.749Z,75.55
2019-01-19T22:13:27.052Z,71.62
2019-01-19T22:15:55.140Z,60.52
2019-01-19T22:18:22.943Z,55.75
2019-01-19T22:20:50.589Z,51.28
2019-01-19T22:23:18.020Z,42.70
2019-01-19T22:25:45.176Z,39.98
2019-01-19T22:28:12.257Z,38.58
2019-01-19T22:30:39.819Z,46.85
2019-01-19T22:33:06.566Z,50.65
2019-01-19T22:35:33.715Z,55.78
2019-01-19T22:38:00.768Z,52.73
2019-01-19T22:40:28.526Z,57.50
2019-01-19T22:42:55.342Z,57.95
2019-01-19T22:45:22.454Z,52.67
2019-01-19T22:47:49.588Z,50.85
2019-01-19T22:50:16.885Z,49.27
2019-01-19T22:52:43.988Z,48.40
2019-01-19T22:55:11.155Z,47.95
2019-01-19T22:57:38.288Z,48.85
2019-01-19T23:00:05.320Z,46.30
2019-01-19T23:02:32.412Z,46.55
2019-01-19T23:04:59.510Z,47.13
2019-01-19T23:07:26.241Z,46.08
2019-01-19T23:09:54.070Z,47.78
2019-01-19T23:12:21.152Z,47.10
2019-01-19T23:14:48.239Z,41.33
2019-01-19T23:17:15.977Z,46.65
2019-01-19T23:19:43.197Z,48.08
2019-01-19T23:22:10.404Z,45.70
2019-01-19T23:24:37.101Z,48.30
2019-01-19T23:27:04.216Z,50.30
2019-01-19T23:29:31.528Z,49.58
2019-01-19T23:31:58.222Z,55.60
2019-01-19T23:34:25.991Z,54.50
2019-01-19T23:36:53.213Z,54.20
2019-01-19T23:39:19.895Z,55.00
2019-01-19T23:41:46.996Z,52.75
2019-01-19T23:44:14.163Z,50.38
2019-01-19T23:46:40.830Z,51.95
2019-01-19T23:49:07.525Z,52.20
2019-01-19T23:51:34.802Z,55.58
2019-01-19T23:54:01.927Z,54.70
2019-01-19T23:56:29.738Z,55.43
2019-01-19T23:58:56.941Z,55.23
